sensor_id;sensor_type;location;lat;lon;timestamp;temperature;humidity
21646;DHT22;10984;45.712;4.800;2023-05-09T00:01:23;14.60;99.90
21646;DHT22;10984;45.712;4.800;2023-05-09T00:03:49;14.60;99.90
21646;DHT22;10984;45.712;4.800;2023-05-09T00:06:15;14.60;99.90
21646;DHT22;10984;45.712;4.800;2023-05-09T00:08:41;14.60;99.90
21646;DHT22;10984;45.712;4.800;2023-05-09T00:11:07;14.70;99.90
21646;DHT22;10984;45.712;4.800;2023-05-09T00:13:32;14.70;99.90
21646;DHT22;10984;45.712;4.800;2023-05-09T00:15:59;14.70;99.90
21646;DHT22;10984;45.712;4.800;2023-05-09T00:18:25;14.70;99.90
21646;DHT22;10984;45.712;4.800;2023-05-09T00:20:52;14.70;99.90
21646;DHT22;10984;45.712;4.800;2023-05-09T00:23:18;14.70;99.90
21646;DHT22;10984;45.712;4.800;2023-05-09T00:25:44;14.70;99.90
21646;DHT22;10984;45.712;4.800;2023-05-09T00:28:09;14.70;99.90
21646;DHT22;10984;45.712;4.800;2023-05-09T00:30:35;14.70;99.90
21646;DHT22;10984;45.712;4.800;2023-05-09T00:33:01;14.70;99.90
21646;DHT22;10984;45.712;4.800;2023-05-09T00:35:26;14.70;99.90
21646;DHT22;10984;45.712;4.800;2023-05-09T00:37:52;14.70;99.90
21646;DHT22;10984;45.712;4.800;2023-05-09T00:40:18;14.70;99.90
21646;DHT22;10984;45.712;4.800;2023-05-09T00:42:43;14.70;99.90
21646;DHT22;10984;45.712;4.800;2023-05-09T00:45:10;14.70;99.90
21646;DHT22;10984;45.712;4.800;2023-05-09T00:47:37;14.70;99.90
21646;DHT22;10984;45.712;4.800;2023-05-09T00:50:03;14.70;99.90
21646;DHT22;10984;45.712;4.800;2023-05-09T00:52:29;14.80;99.90
21646;DHT22;10984;45.712;4.800;2023-05-09T00:54:57;14.80;99.90
21646;DHT22;10984;45.712;4.800;2023-05-09T00:57:24;14.70;99.90
21646;DHT22;10984;45.712;4.800;2023-05-09T00:59:50;14.70;99.90
21646;DHT22;10984;45.712;4.800;2023-05-09T01:02:18;14.70;99.90
21646;DHT22;10984;45.712;4.800;2023-05-09T01:04:45;14.70;99.90
21646;DHT22;10984;45.712;4.800;2023-05-09T01:22:08;14.40;99.90
21646;DHT22;10984;45.712;4.800;2023-05-09T01:30:25;14.40;99.90
21646;DHT22;10984;45.712;4.800;2023-05-09T01:32:53;14.40;99.90
21646;DHT22;10984;45.712;4.800;2023-05-09T01:35:23;14.30;99.90
21646;DHT22;10984;45.712;4.800;2023-05-09T01:37:50;14.40;99.90
21646;DHT22;10984;45.712;4.800;2023-05-09T01:40:19;14.30;99.90
21646;DHT22;10984;45.712;4.800;2023-05-09T01:43:05;14.30;99.90
21646;DHT22;10984;45.712;4.800;2023-05-09T01:45:32;14.30;99.90
21646;DHT22;10984;45.712;4.800;2023-05-09T01:47:58;14.30;99.90
21646;DHT22;10984;45.712;4.800;2023-05-09T01:50:25;14.40;99.90
21646;DHT22;10984;45.712;4.800;2023-05-09T01:52:55;14.40;99.90
21646;DHT22;10984;45.712;4.800;2023-05-09T01:55:22;14.40;99.90
21646;DHT22;10984;45.712;4.800;2023-05-09T01:57:50;14.40;99.90
21646;DHT22;10984;45.712;4.800;2023-05-09T02:00:17;14.40;99.90
21646;DHT22;10984;45.712;4.800;2023-05-09T02:02:44;14.40;99.90
21646;DHT22;10984;45.712;4.800;2023-05-09T02:05:10;14.40;99.90
21646;DHT22;10984;45.712;4.800;2023-05-09T02:07:36;14.40;99.90
21646;DHT22;10984;45.712;4.800;2023-05-09T02:10:04;14.40;99.90
21646;DHT22;10984;45.712;4.800;2023-05-09T02:12:32;14.50;99.90
21646;DHT22;10984;45.712;4.800;2023-05-09T02:14:58;14.50;99.90
21646;DHT22;10984;45.712;4.800;2023-05-09T02:17:24;14.50;99.90
21646;DHT22;10984;45.712;4.800;2023-05-09T02:19:49;14.50;99.90
21646;DHT22;10984;45.712;4.800;2023-05-09T02:22:15;14.50;99.90
21646;DHT22;10984;45.712;4.800;2023-05-09T02:24:42;14.50;99.90
21646;DHT22;10984;45.712;4.800;2023-05-09T02:27:09;14.50;99.90
21646;DHT22;10984;45.712;4.800;2023-05-09T02:29:49;14.50;99.90
21646;DHT22;10984;45.712;4.800;2023-05-09T02:32:34;14.60;99.90
21646;DHT22;10984;45.712;4.800;2023-05-09T02:35:02;14.60;99.90
21646;DHT22;10984;45.712;4.800;2023-05-09T02:37:28;14.60;99.90
21646;DHT22;10984;45.712;4.800;2023-05-09T02:39:55;14.60;99.90
21646;DHT22;10984;45.712;4.800;2023-05-09T02:42:22;14.60;99.90
21646;DHT22;10984;45.712;4.800;2023-05-09T02:44:50;14.70;99.90
21646;DHT22;10984;45.712;4.800;2023-05-09T02:47:16;14.70;99.90
21646;DHT22;10984;45.712;4.800;2023-05-09T02:49:42;14.70;99.90
21646;DHT22;10984;45.712;4.800;2023-05-09T02:52:07;14.70;99.90
21646;DHT22;10984;45.712;4.800;2023-05-09T02:54:33;14.70;99.90
21646;DHT22;10984;45.712;4.800;2023-05-09T02:56:58;14.70;99.90
21646;DHT22;10984;45.712;4.800;2023-05-09T02:59:25;14.70;99.90
21646;DHT22;10984;45.712;4.800;2023-05-09T03:01:51;14.60;99.90
21646;DHT22;10984;45.712;4.800;2023-05-09T03:04:16;14.60;99.90
21646;DHT22;10984;45.712;4.800;2023-05-09T03:06:42;14.60;99.90
21646;DHT22;10984;45.712;4.800;2023-05-09T03:09:08;14.60;99.90
21646;DHT22;10984;45.712;4.800;2023-05-09T03:11:35;14.50;99.90
21646;DHT22;10984;45.712;4.800;2023-05-09T03:14:19;14.50;99.90
21646;DHT22;10984;45.712;4.800;2023-05-09T03:16:44;14.50;99.90
21646;DHT22;10984;45.712;4.800;2023-05-09T03:19:10;14.50;99.90
21646;DHT22;10984;45.712;4.800;2023-05-09T03:21:36;14.50;99.90
21646;DHT22;10984;45.712;4.800;2023-05-09T03:24:01;14.50;99.90
21646;DHT22;10984;45.712;4.800;2023-05-09T03:26:29;14.50;99.90
21646;DHT22;10984;45.712;4.800;2023-05-09T03:28:54;14.50;99.90
21646;DHT22;10984;45.712;4.800;2023-05-09T03:31:20;14.50;99.90
21646;DHT22;10984;45.712;4.800;2023-05-09T03:33:46;14.50;99.90
21646;DHT22;10984;45.712;4.800;2023-05-09T03:36:11;14.50;99.90
21646;DHT22;10984;45.712;4.800;2023-05-09T03:38:37;14.50;99.90
21646;DHT22;10984;45.712;4.800;2023-05-09T03:41:03;14.50;99.90
21646;DHT22;10984;45.712;4.800;2023-05-09T03:43:28;14.40;99.90
21646;DHT22;10984;45.712;4.800;2023-05-09T03:45:54;14.40;99.90
21646;DHT22;10984;45.712;4.800;2023-05-09T03:48:20;14.40;99.90
21646;DHT22;10984;45.712;4.800;2023-05-09T03:50:46;14.30;99.90
21646;DHT22;10984;45.712;4.800;2023-05-09T03:53:11;14.30;99.90
21646;DHT22;10984;45.712;4.800;2023-05-09T03:55:37;14.20;99.90
21646;DHT22;10984;45.712;4.800;2023-05-09T03:58:02;14.30;99.90
21646;DHT22;10984;45.712;4.800;2023-05-09T04:00:28;14.30;99.90
21646;DHT22;10984;45.712;4.800;2023-05-09T04:02:54;14.20;99.90
21646;DHT22;10984;45.712;4.800;2023-05-09T04:05:20;14.20;99.90
21646;DHT22;10984;45.712;4.800;2023-05-09T04:07:45;14.20;99.90
21646;DHT22;10984;45.712;4.800;2023-05-09T04:10:11;14.20;99.90
21646;DHT22;10984;45.712;4.800;2023-05-09T04:12:37;14.20;99.90
21646;DHT22;10984;45.712;4.800;2023-05-09T04:15:02;14.20;99.90
21646;DHT22;10984;45.712;4.800;2023-05-09T04:17:28;14.20;99.90
21646;DHT22;10984;45.712;4.800;2023-05-09T04:19:54;14.10;99.90
21646;DHT22;10984;45.712;4.800;2023-05-09T04:22:19;14.10;99.90
21646;DHT22;10984;45.712;4.800;2023-05-09T04:24:45;14.10;99.90
21646;DHT22;10984;45.712;4.800;2023-05-09T04:27:11;14.10;99.90
21646;DHT22;10984;45.712;4.800;2023-05-09T04:29:36;14.10;99.90
21646;DHT22;10984;45.712;4.800;2023-05-09T04:32:03;14.10;99.90
21646;DHT22;10984;45.712;4.800;2023-05-09T04:34:29;14.10;99.90
21646;DHT22;10984;45.712;4.800;2023-05-09T04:36:56;14.20;99.90
21646;DHT22;10984;45.712;4.800;2023-05-09T04:39:21;14.20;99.90
21646;DHT22;10984;45.712;4.800;2023-05-09T04:41:47;14.30;99.90
21646;DHT22;10984;45.712;4.800;2023-05-09T04:44:14;14.20;99.90
21646;DHT22;10984;45.712;4.800;2023-05-09T04:46:40;14.10;99.90
21646;DHT22;10984;45.712;4.800;2023-05-09T04:49:06;14.20;99.90
21646;DHT22;10984;45.712;4.800;2023-05-09T04:51:31;14.20;99.90
21646;DHT22;10984;45.712;4.800;2023-05-09T04:53:57;14.30;99.90
21646;DHT22;10984;45.712;4.800;2023-05-09T04:56:23;14.30;99.90
21646;DHT22;10984;45.712;4.800;2023-05-09T04:58:49;14.40;99.90
21646;DHT22;10984;45.712;4.800;2023-05-09T05:01:14;14.50;99.90
21646;DHT22;10984;45.712;4.800;2023-05-09T05:03:41;14.50;99.90
21646;DHT22;10984;45.712;4.800;2023-05-09T05:06:06;14.60;99.90
21646;DHT22;10984;45.712;4.800;2023-05-09T05:08:32;14.60;99.90
21646;DHT22;10984;45.712;4.800;2023-05-09T05:10:58;14.70;99.90
21646;DHT22;10984;45.712;4.800;2023-05-09T05:13:23;14.80;99.90
21646;DHT22;10984;45.712;4.800;2023-05-09T05:15:49;14.80;99.90
21646;DHT22;10984;45.712;4.800;2023-05-09T05:18:15;14.90;99.90
21646;DHT22;10984;45.712;4.800;2023-05-09T05:20:40;14.90;99.90
21646;DHT22;10984;45.712;4.800;2023-05-09T05:23:07;14.90;99.90
21646;DHT22;10984;45.712;4.800;2023-05-09T05:25:33;15.10;99.90
21646;DHT22;10984;45.712;4.800;2023-05-09T05:27:58;15.20;99.90
21646;DHT22;10984;45.712;4.800;2023-05-09T05:30:24;15.30;99.90
21646;DHT22;10984;45.712;4.800;2023-05-09T05:32:50;15.40;99.90
21646;DHT22;10984;45.712;4.800;2023-05-09T05:35:16;15.50;99.90
21646;DHT22;10984;45.712;4.800;2023-05-09T05:37:42;15.60;99.90
21646;DHT22;10984;45.712;4.800;2023-05-09T05:40:09;15.80;99.90
21646;DHT22;10984;45.712;4.800;2023-05-09T05:42:34;15.80;99.90
21646;DHT22;10984;45.712;4.800;2023-05-09T05:45:00;16.00;99.90
21646;DHT22;10984;45.712;4.800;2023-05-09T05:47:47;16.10;99.90
21646;DHT22;10984;45.712;4.800;2023-05-09T05:50:13;16.20;99.90
21646;DHT22;10984;45.712;4.800;2023-05-09T05:52:39;16.40;99.90
21646;DHT22;10984;45.712;4.800;2023-05-09T05:55:06;16.60;99.90
21646;DHT22;10984;45.712;4.800;2023-05-09T05:57:32;16.70;99.90
21646;DHT22;10984;45.712;4.800;2023-05-09T05:59:59;16.90;99.90
21646;DHT22;10984;45.712;4.800;2023-05-09T06:02:25;17.00;99.90
21646;DHT22;10984;45.712;4.800;2023-05-09T06:04:51;17.10;99.90
21646;DHT22;10984;45.712;4.800;2023-05-09T06:07:17;17.30;99.90
21646;DHT22;10984;45.712;4.800;2023-05-09T06:09:42;17.50;99.90
21646;DHT22;10984;45.712;4.800;2023-05-09T06:12:08;17.60;99.90
21646;DHT22;10984;45.712;4.800;2023-05-09T06:14:33;17.80;99.90
21646;DHT22;10984;45.712;4.800;2023-05-09T06:16:59;17.90;99.90
21646;DHT22;10984;45.712;4.800;2023-05-09T06:19:25;18.30;99.90
21646;DHT22;10984;45.712;4.800;2023-05-09T06:21:51;18.60;99.90
21646;DHT22;10984;45.712;4.800;2023-05-09T06:24:17;18.90;99.90
21646;DHT22;10984;45.712;4.800;2023-05-09T06:26:42;19.20;99.90
21646;DHT22;10984;45.712;4.800;2023-05-09T06:29:08;19.30;99.90
21646;DHT22;10984;45.712;4.800;2023-05-09T06:31:35;19.30;99.90
21646;DHT22;10984;45.712;4.800;2023-05-09T06:34:03;19.40;99.90
21646;DHT22;10984;45.712;4.800;2023-05-09T06:36:29;19.50;99.90
21646;DHT22;10984;45.712;4.800;2023-05-09T06:38:55;19.50;99.90
21646;DHT22;10984;45.712;4.800;2023-05-09T06:41:20;19.60;99.90
21646;DHT22;10984;45.712;4.800;2023-05-09T06:43:46;19.70;99.90
21646;DHT22;10984;45.712;4.800;2023-05-09T06:46:12;19.60;99.90
21646;DHT22;10984;45.712;4.800;2023-05-09T06:48:37;19.80;99.90
21646;DHT22;10984;45.712;4.800;2023-05-09T06:51:03;20.00;99.90
21646;DHT22;10984;45.712;4.800;2023-05-09T06:53:29;20.20;99.90
21646;DHT22;10984;45.712;4.800;2023-05-09T06:55:54;20.10;99.90
21646;DHT22;10984;45.712;4.800;2023-05-09T06:58:20;20.40;99.90
21646;DHT22;10984;45.712;4.800;2023-05-09T07:00:46;20.70;99.90
21646;DHT22;10984;45.712;4.800;2023-05-09T07:03:12;20.80;99.90
21646;DHT22;10984;45.712;4.800;2023-05-09T07:05:37;21.20;99.90
21646;DHT22;10984;45.712;4.800;2023-05-09T07:08:03;21.40;99.90
21646;DHT22;10984;45.712;4.800;2023-05-09T07:10:29;21.80;99.90
21646;DHT22;10984;45.712;4.800;2023-05-09T07:12:55;22.00;99.90
21646;DHT22;10984;45.712;4.800;2023-05-09T07:15:20;21.30;99.90
21646;DHT22;10984;45.712;4.800;2023-05-09T07:17:46;21.10;99.90
21646;DHT22;10984;45.712;4.800;2023-05-09T07:20:11;21.00;99.90
21646;DHT22;10984;45.712;4.800;2023-05-09T07:22:37;20.80;99.90
21646;DHT22;10984;45.712;4.800;2023-05-09T07:25:05;21.40;99.90
21646;DHT22;10984;45.712;4.800;2023-05-09T07:27:31;21.70;99.90
21646;DHT22;10984;45.712;4.800;2023-05-09T07:29:56;22.40;99.90
21646;DHT22;10984;45.712;4.800;2023-05-09T07:32:22;22.50;99.90
21646;DHT22;10984;45.712;4.800;2023-05-09T07:34:47;22.60;99.90
21646;DHT22;10984;45.712;4.800;2023-05-09T07:37:13;22.60;99.90
21646;DHT22;10984;45.712;4.800;2023-05-09T07:39:39;22.50;99.90
21646;DHT22;10984;45.712;4.800;2023-05-09T07:42:05;22.40;99.90
21646;DHT22;10984;45.712;4.800;2023-05-09T07:44:30;23.00;99.90
21646;DHT22;10984;45.712;4.800;2023-05-09T07:46:56;23.10;99.90
21646;DHT22;10984;45.712;4.800;2023-05-09T07:49:24;23.50;99.90
21646;DHT22;10984;45.712;4.800;2023-05-09T07:51:50;23.70;99.90
21646;DHT22;10984;45.712;4.800;2023-05-09T07:54:15;23.80;99.90
21646;DHT22;10984;45.712;4.800;2023-05-09T07:56:41;23.70;99.90
21646;DHT22;10984;45.712;4.800;2023-05-09T07:59:07;23.70;99.90
21646;DHT22;10984;45.712;4.800;2023-05-09T08:01:32;23.30;99.90
21646;DHT22;10984;45.712;4.800;2023-05-09T08:03:58;23.30;99.90
21646;DHT22;10984;45.712;4.800;2023-05-09T08:06:24;22.80;99.90
21646;DHT22;10984;45.712;4.800;2023-05-09T08:08:50;22.70;99.90
21646;DHT22;10984;45.712;4.800;2023-05-09T08:11:16;22.50;99.90
21646;DHT22;10984;45.712;4.800;2023-05-09T08:13:42;22.50;99.90
21646;DHT22;10984;45.712;4.800;2023-05-09T08:16:07;22.50;99.90
21646;DHT22;10984;45.712;4.800;2023-05-09T08:18:33;22.50;99.90
21646;DHT22;10984;45.712;4.800;2023-05-09T08:20:59;22.90;99.90
21646;DHT22;10984;45.712;4.800;2023-05-09T08:23:25;23.20;99.90
21646;DHT22;10984;45.712;4.800;2023-05-09T08:26:09;22.60;99.90
21646;DHT22;10984;45.712;4.800;2023-05-09T08:28:35;22.50;99.90
21646;DHT22;10984;45.712;4.800;2023-05-09T08:31:01;22.30;99.90
21646;DHT22;10984;45.712;4.800;2023-05-09T08:33:26;22.60;99.90
21646;DHT22;10984;45.712;4.800;2023-05-09T08:35:52;22.50;99.90
21646;DHT22;10984;45.712;4.800;2023-05-09T08:38:18;22.40;99.90
21646;DHT22;10984;45.712;4.800;2023-05-09T08:40:44;22.60;99.90
21646;DHT22;10984;45.712;4.800;2023-05-09T08:43:11;22.80;99.90
21646;DHT22;10984;45.712;4.800;2023-05-09T08:45:50;22.80;99.90
21646;DHT22;10984;45.712;4.800;2023-05-09T08:48:17;22.60;99.90
21646;DHT22;10984;45.712;4.800;2023-05-09T08:50:43;23.00;99.90
21646;DHT22;10984;45.712;4.800;2023-05-09T08:53:13;22.90;99.90
21646;DHT22;10984;45.712;4.800;2023-05-09T08:55:39;22.90;99.90
21646;DHT22;10984;45.712;4.800;2023-05-09T08:58:05;23.00;99.90
21646;DHT22;10984;45.712;4.800;2023-05-09T09:00:32;23.20;99.90
21646;DHT22;10984;45.712;4.800;2023-05-09T09:03:01;23.20;99.90
21646;DHT22;10984;45.712;4.800;2023-05-09T09:05:29;23.50;99.90
21646;DHT22;10984;45.712;4.800;2023-05-09T09:07:57;23.90;99.90
21646;DHT22;10984;45.712;4.800;2023-05-09T09:10:24;23.80;99.90
21646;DHT22;10984;45.712;4.800;2023-05-09T09:12:53;23.90;99.90
21646;DHT22;10984;45.712;4.800;2023-05-09T09:15:22;24.20;99.90
21646;DHT22;10984;45.712;4.800;2023-05-09T09:17:50;24.00;99.90
21646;DHT22;10984;45.712;4.800;2023-05-09T09:20:22;23.90;99.90
21646;DHT22;10984;45.712;4.800;2023-05-09T09:22:51;23.80;99.90
21646;DHT22;10984;45.712;4.800;2023-05-09T09:25:19;24.10;99.90
21646;DHT22;10984;45.712;4.800;2023-05-09T09:27:45;24.30;99.90
21646;DHT22;10984;45.712;4.800;2023-05-09T09:30:11;24.60;99.90
21646;DHT22;10984;45.712;4.800;2023-05-09T09:32:37;24.60;99.90
21646;DHT22;10984;45.712;4.800;2023-05-09T09:35:23;24.30;99.90
21646;DHT22;10984;45.712;4.800;2023-05-09T09:37:55;24.30;99.90
21646;DHT22;10984;45.712;4.800;2023-05-09T09:40:23;24.10;99.90
21646;DHT22;10984;45.712;4.800;2023-05-09T09:42:51;24.20;99.90
21646;DHT22;10984;45.712;4.800;2023-05-09T09:45:19;24.40;99.90
21646;DHT22;10984;45.712;4.800;2023-05-09T09:47:46;24.60;99.90
21646;DHT22;10984;45.712;4.800;2023-05-09T09:50:15;24.20;99.90
21646;DHT22;10984;45.712;4.800;2023-05-09T09:52:48;23.90;99.90
21646;DHT22;10984;45.712;4.800;2023-05-09T09:55:14;24.20;99.90
21646;DHT22;10984;45.712;4.800;2023-05-09T09:57:40;24.10;99.90
21646;DHT22;10984;45.712;4.800;2023-05-09T10:00:13;24.20;99.90
21646;DHT22;10984;45.712;4.800;2023-05-09T10:02:58;24.00;99.90
21646;DHT22;10984;45.712;4.800;2023-05-09T10:05:27;23.80;99.90
21646;DHT22;10984;45.712;4.800;2023-05-09T10:07:54;23.60;99.90
21646;DHT22;10984;45.712;4.800;2023-05-09T10:10:20;23.60;99.90
21646;DHT22;10984;45.712;4.800;2023-05-09T10:12:46;23.90;99.90
21646;DHT22;10984;45.712;4.800;2023-05-09T10:15:16;23.70;99.90
21646;DHT22;10984;45.712;4.800;2023-05-09T10:17:43;23.70;99.90
21646;DHT22;10984;45.712;4.800;2023-05-09T10:20:09;23.90;99.90
21646;DHT22;10984;45.712;4.800;2023-05-09T10:22:38;23.80;99.90
21646;DHT22;10984;45.712;4.800;2023-05-09T10:25:07;24.20;99.90
21646;DHT22;10984;45.712;4.800;2023-05-09T10:27:37;24.10;99.90
21646;DHT22;10984;45.712;4.800;2023-05-09T10:33:09;24.10;99.90
21646;DHT22;10984;45.712;4.800;2023-05-09T10:35:40;23.60;99.90
21646;DHT22;10984;45.712;4.800;2023-05-09T10:38:08;23.50;99.90
21646;DHT22;10984;45.712;4.800;2023-05-09T10:40:37;23.50;99.90
21646;DHT22;10984;45.712;4.800;2023-05-09T10:43:02;23.20;99.90
21646;DHT22;10984;45.712;4.800;2023-05-09T10:45:29;23.10;99.90
21646;DHT22;10984;45.712;4.800;2023-05-09T10:47:56;23.20;99.90
21646;DHT22;10984;45.712;4.800;2023-05-09T10:50:22;23.20;99.90
21646;DHT22;10984;45.712;4.800;2023-05-09T10:53:07;23.10;99.90
21646;DHT22;10984;45.712;4.800;2023-05-09T10:55:56;23.20;99.90
21646;DHT22;10984;45.712;4.800;2023-05-09T10:58:42;23.00;99.90
21646;DHT22;10984;45.712;4.800;2023-05-09T11:01:12;22.70;99.90
21646;DHT22;10984;45.712;4.800;2023-05-09T11:03:57;22.60;99.90
21646;DHT22;10984;45.712;4.800;2023-05-09T11:06:47;22.90;99.90
21646;DHT22;10984;45.712;4.800;2023-05-09T11:09:34;22.90;99.90
21646;DHT22;10984;45.712;4.800;2023-05-09T11:12:22;23.00;99.90
21646;DHT22;10984;45.712;4.800;2023-05-09T11:14:49;23.20;99.90
21646;DHT22;10984;45.712;4.800;2023-05-09T11:20:27;23.10;99.90
21646;DHT22;10984;45.712;4.800;2023-05-09T11:22:58;23.20;99.90
21646;DHT22;10984;45.712;4.800;2023-05-09T11:25:25;22.90;99.90
21646;DHT22;10984;45.712;4.800;2023-05-09T11:28:09;23.10;1.00
21646;DHT22;10984;45.712;4.800;2023-05-09T11:39:16;22.80;1.00
21646;DHT22;10984;45.712;4.800;2023-05-09T11:41:48;22.80;1.00
21646;DHT22;10984;45.712;4.800;2023-05-09T11:44:17;22.90;1.00
21646;DHT22;10984;45.712;4.800;2023-05-09T11:46:43;22.90;1.00
21646;DHT22;10984;45.712;4.800;2023-05-09T11:49:09;22.80;1.00
21646;DHT22;10984;45.712;4.800;2023-05-09T11:51:35;23.00;1.00
21646;DHT22;10984;45.712;4.800;2023-05-09T11:54:03;23.00;1.00
21646;DHT22;10984;45.712;4.800;2023-05-09T11:56:30;22.80;1.00
21646;DHT22;10984;45.712;4.800;2023-05-09T11:58:55;22.90;1.00
21646;DHT22;10984;45.712;4.800;2023-05-09T12:01:22;22.90;1.00
21646;DHT22;10984;45.712;4.800;2023-05-09T12:03:48;23.00;1.00
21646;DHT22;10984;45.712;4.800;2023-05-09T12:06:18;22.70;1.00
21646;DHT22;10984;45.712;4.800;2023-05-09T12:08:45;22.60;1.00
21646;DHT22;10984;45.712;4.800;2023-05-09T12:11:11;22.50;1.00
21646;DHT22;10984;45.712;4.800;2023-05-09T12:13:56;22.50;31.20
21646;DHT22;10984;45.712;4.800;2023-05-09T12:16:22;22.40;47.90
21646;DHT22;10984;45.712;4.800;2023-05-09T12:18:49;22.20;12.90
21646;DHT22;10984;45.712;4.800;2023-05-09T12:21:16;22.10;39.30
21646;DHT22;10984;45.712;4.800;2023-05-09T12:23:42;21.80;97.60
21646;DHT22;10984;45.712;4.800;2023-05-09T12:26:08;21.90;98.80
21646;DHT22;10984;45.712;4.800;2023-05-09T12:28:34;21.80;99.90
21646;DHT22;10984;45.712;4.800;2023-05-09T12:31:00;21.60;99.90
21646;DHT22;10984;45.712;4.800;2023-05-09T12:33:27;21.60;99.90
21646;DHT22;10984;45.712;4.800;2023-05-09T12:36:11;21.50;99.90
21646;DHT22;10984;45.712;4.800;2023-05-09T12:38:38;21.50;99.90
21646;DHT22;10984;45.712;4.800;2023-05-09T12:43:49;21.00;99.90
21646;DHT22;10984;45.712;4.800;2023-05-09T12:46:34;20.90;99.90
21646;DHT22;10984;45.712;4.800;2023-05-09T12:49:00;20.70;99.90
21646;DHT22;10984;45.712;4.800;2023-05-09T12:51:26;20.70;99.90
21646;DHT22;10984;45.712;4.800;2023-05-09T12:53:52;20.70;99.90
21646;DHT22;10984;45.712;4.800;2023-05-09T12:56:21;20.60;99.90
21646;DHT22;10984;45.712;4.800;2023-05-09T13:01:14;20.50;99.90
21646;DHT22;10984;45.712;4.800;2023-05-09T13:03:40;20.20;99.90
21646;DHT22;10984;45.712;4.800;2023-05-09T13:06:11;20.20;99.90
21646;DHT22;10984;45.712;4.800;2023-05-09T13:08:37;20.10;99.90
21646;DHT22;10984;45.712;4.800;2023-05-09T13:11:03;19.80;99.90
21646;DHT22;10984;45.712;4.800;2023-05-09T13:13:29;19.80;99.90
21646;DHT22;10984;45.712;4.800;2023-05-09T13:15:55;19.60;99.90
21646;DHT22;10984;45.712;4.800;2023-05-09T13:18:22;19.50;99.90
21646;DHT22;10984;45.712;4.800;2023-05-09T13:20:49;19.30;99.90
21646;DHT22;10984;45.712;4.800;2023-05-09T13:23:15;19.30;99.90
21646;DHT22;10984;45.712;4.800;2023-05-09T13:25:41;19.20;99.90
21646;DHT22;10984;45.712;4.800;2023-05-09T13:28:07;19.20;99.90
21646;DHT22;10984;45.712;4.800;2023-05-09T13:30:33;19.10;99.90
21646;DHT22;10984;45.712;4.800;2023-05-09T13:32:59;19.10;99.90
21646;DHT22;10984;45.712;4.800;2023-05-09T13:35:25;19.10;99.90
21646;DHT22;10984;45.712;4.800;2023-05-09T13:37:50;19.00;99.90
21646;DHT22;10984;45.712;4.800;2023-05-09T13:40:16;19.10;99.90
21646;DHT22;10984;45.712;4.800;2023-05-09T13:42:42;19.10;99.90
21646;DHT22;10984;45.712;4.800;2023-05-09T13:45:08;19.20;99.90
21646;DHT22;10984;45.712;4.800;2023-05-09T13:47:33;19.30;99.90
21646;DHT22;10984;45.712;4.800;2023-05-09T13:50:00;19.40;99.90
21646;DHT22;10984;45.712;4.800;2023-05-09T13:52:26;19.30;99.90
21646;DHT22;10984;45.712;4.800;2023-05-09T13:54:52;19.40;99.90
21646;DHT22;10984;45.712;4.800;2023-05-09T13:57:18;19.40;99.90
21646;DHT22;10984;45.712;4.800;2023-05-09T13:59:44;19.40;99.90
21646;DHT22;10984;45.712;4.800;2023-05-09T14:02:09;19.30;99.90
21646;DHT22;10984;45.712;4.800;2023-05-09T14:04:35;19.30;99.90
21646;DHT22;10984;45.712;4.800;2023-05-09T14:07:01;19.20;99.90
21646;DHT22;10984;45.712;4.800;2023-05-09T14:09:27;19.30;99.90
21646;DHT22;10984;45.712;4.800;2023-05-09T14:11:54;19.20;99.90
21646;DHT22;10984;45.712;4.800;2023-05-09T14:14:21;19.10;99.90
21646;DHT22;10984;45.712;4.800;2023-05-09T14:16:48;19.10;99.90
21646;DHT22;10984;45.712;4.800;2023-05-09T14:19:14;19.00;99.90
21646;DHT22;10984;45.712;4.800;2023-05-09T14:21:40;18.90;99.90
21646;DHT22;10984;45.712;4.800;2023-05-09T14:24:25;18.80;99.90
21646;DHT22;10984;45.712;4.800;2023-05-09T14:26:55;18.60;99.90
21646;DHT22;10984;45.712;4.800;2023-05-09T14:29:21;18.60;99.90
21646;DHT22;10984;45.712;4.800;2023-05-09T14:31:46;18.60;99.90
21646;DHT22;10984;45.712;4.800;2023-05-09T14:34:12;18.50;99.90
21646;DHT22;10984;45.712;4.800;2023-05-09T14:36:38;18.40;99.90
21646;DHT22;10984;45.712;4.800;2023-05-09T14:39:03;18.40;99.90
21646;DHT22;10984;45.712;4.800;2023-05-09T14:41:30;18.40;99.90
21646;DHT22;10984;45.712;4.800;2023-05-09T14:43:56;18.40;99.90
21646;DHT22;10984;45.712;4.800;2023-05-09T14:46:22;18.40;99.90
21646;DHT22;10984;45.712;4.800;2023-05-09T14:48:49;18.30;99.90
21646;DHT22;10984;45.712;4.800;2023-05-09T14:51:16;18.30;99.90
21646;DHT22;10984;45.712;4.800;2023-05-09T14:53:41;18.30;99.90
21646;DHT22;10984;45.712;4.800;2023-05-09T14:56:08;18.30;99.90
21646;DHT22;10984;45.712;4.800;2023-05-09T14:58:34;18.20;99.90
21646;DHT22;10984;45.712;4.800;2023-05-09T15:01:00;18.10;99.90
21646;DHT22;10984;45.712;4.800;2023-05-09T15:03:26;18.10;99.90
21646;DHT22;10984;45.712;4.800;2023-05-09T15:05:52;18.10;99.90
21646;DHT22;10984;45.712;4.800;2023-05-09T15:08:18;18.10;99.90
21646;DHT22;10984;45.712;4.800;2023-05-09T15:10:44;18.00;99.90
21646;DHT22;10984;45.712;4.800;2023-05-09T15:13:10;18.00;99.90
21646;DHT22;10984;45.712;4.800;2023-05-09T15:15:35;17.90;99.90
21646;DHT22;10984;45.712;4.800;2023-05-09T15:18:20;18.00;99.90
21646;DHT22;10984;45.712;4.800;2023-05-09T15:20:47;18.00;99.90
21646;DHT22;10984;45.712;4.800;2023-05-09T15:23:13;18.00;99.90
21646;DHT22;10984;45.712;4.800;2023-05-09T15:25:40;18.00;99.90
21646;DHT22;10984;45.712;4.800;2023-05-09T15:28:06;18.00;99.90
21646;DHT22;10984;45.712;4.800;2023-05-09T15:30:32;18.00;99.90
21646;DHT22;10984;45.712;4.800;2023-05-09T15:32:58;17.90;99.90
21646;DHT22;10984;45.712;4.800;2023-05-09T15:35:24;17.90;99.90
21646;DHT22;10984;45.712;4.800;2023-05-09T15:37:50;17.90;99.90
21646;DHT22;10984;45.712;4.800;2023-05-09T15:40:15;17.90;99.90
21646;DHT22;10984;45.712;4.800;2023-05-09T15:42:41;17.80;99.90
21646;DHT22;10984;45.712;4.800;2023-05-09T15:45:07;17.80;99.90
21646;DHT22;10984;45.712;4.800;2023-05-09T15:47:33;17.80;99.90
21646;DHT22;10984;45.712;4.800;2023-05-09T15:49:58;17.70;99.90
21646;DHT22;10984;45.712;4.800;2023-05-09T15:52:24;17.80;99.90
21646;DHT22;10984;45.712;4.800;2023-05-09T15:54:53;17.80;99.90
21646;DHT22;10984;45.712;4.800;2023-05-09T15:57:19;17.80;99.90
21646;DHT22;10984;45.712;4.800;2023-05-09T15:59:45;17.80;99.90
21646;DHT22;10984;45.712;4.800;2023-05-09T16:02:10;17.70;99.90
21646;DHT22;10984;45.712;4.800;2023-05-09T16:04:36;17.70;99.90
21646;DHT22;10984;45.712;4.800;2023-05-09T16:07:02;17.70;99.90
21646;DHT22;10984;45.712;4.800;2023-05-09T16:09:28;17.70;99.90
21646;DHT22;10984;45.712;4.800;2023-05-09T16:11:54;17.70;99.90
21646;DHT22;10984;45.712;4.800;2023-05-09T16:14:20;17.70;99.90